Flight Track Log - Related Links

Times and Time Zones

All times are in EDT time to prevent confusion due to time zone crossing. See the EJA290 flight status page for this flight to view local times or setup timezone preferences in your user account.

Time Position Orientation Groundspeed Altitude Reporting Facility
EDT Latitude Longitude Course Direction KTS MPH feet Rate Location/Type
Mon 10:07:27 AM 38.9833 -77.5167 345° North 211 243 3,100  Level Potomac TRACON
Mon 10:08:27 AM 39.0333 -77.5333 345° North 221 254 6,200 2,900 Climbing Potomac TRACON
Mon 10:09:27 AM 39.1000 -77.5000 21° North 271 312 8,900 1,400 Climbing Potomac TRACON
Mon 10:10:27 AM 39.1667 -77.4500 30° Northeast 303 349 9,000 50 Climbing Potomac TRACON
Mon 10:11:27 AM 39.2000 -77.3500 67° East 310 357 9,000 450 Level Potomac TRACON
Mon 10:12:27 AM 39.2500 -77.2667 52° Northeast 299 344 9,900 1,011 Climbing Potomac TRACON
Mon 10:14:25 AM 39.3256 -77.0539 65° Northeast 360 414 12,000 1,045 Climbing Washington Center
Mon 10:15:25 AM 39.3064 -76.9111 100° East 371 427 13,000 1,488 Climbing Washington Center
Mon 10:16:26 AM 39.2764 -76.7739 106° East 374 430 15,000 1,800 Climbing Washington Center
Mon 10:17:25 AM 39.2425 -76.6286 107° East 395 455 16,600 1,714 Climbing Washington Center
Mon 10:18:25 AM 39.2061 -76.4808 108° East 415 478 18,400 1,884 Climbing Washington Center
Mon 10:19:26 AM 39.1736 -76.3358 106° East 420 483 20,400 2,017 Climbing Washington Center
Mon 10:20:24 AM 39.1536 -76.1858 100° East 420 483 22,400 1,311 Climbing Washington Center
Mon 10:21:25 AM 39.1711 -76.0067 83° East 427 491 23,000 1,033 Climbing Washington Center
Mon 10:22:26 AM 39.2131 -75.8514 71° East 445 512 24,500 1,008 Climbing Washington Center
Mon 10:23:24 AM 39.3258 -75.7122 44° Northeast 470 541 25,000 252 Climbing Washington Center
Mon 10:24:25 AM 39.4322 -75.5756 45° Northeast 524 603 25,000  Level Washington Center
Mon 10:25:25 AM 39.5364 -75.4381 45° Northeast 537 618 25,000  Level Washington Center
Mon 10:26:26 AM 39.6444 -75.2950 46° Northeast 537 618 25,000  Level Washington Center
Mon 10:27:24 AM 39.7378 -75.1597 48° Northeast 542 624 25,000  Level Washington Center
Mon 10:28:20 AM 39.8306 -75.0256 48° Northeast 559 643 25,000  Level New York Center
Mon 10:29:17 AM 39.9358 -74.8778 47° Northeast 559 643 25,000  Level New York Center
Mon 10:30:17 AM 40.0456 -74.7133 49° Northeast 547 629 25,000 -50 Level New York Center
Mon 10:31:18 AM 40.1344 -74.5475 55° Northeast 547 629 24,900  Descending New York Center
Mon 10:32:19 AM 40.2231 -74.3811 55° Northeast 552 635 25,000 50 Climbing New York Center
Mon 10:33:19 AM 40.3133 -74.2142 55° Northeast 557 641 25,000 -51 Level New York Center
Mon 10:34:17 AM 40.4014 -74.0497 55° Northeast 557 641 24,900 -688 Descending New York Center
Mon 10:35:56 AM 40.5481 -73.7756 55° Northeast 550 633 23,200 -1,208 Descending Boston Center
Mon 10:36:56 AM 40.6333 -73.6078 56° Northeast 550 633 21,700 -1,500 Descending Boston Center
Mon 10:37:56 AM 40.7203 -73.4450 55° Northeast 550 633 20,200 -1,350 Descending Boston Center
Mon 10:38:56 AM 40.8072 -73.2900 53° Northeast 550 633 19,000 -650 Descending Boston Center
Mon 10:39:56 AM 40.9142 -73.1625 42° Northeast 519 597 18,900 -650 Descending Boston Center
Mon 10:40:56 AM 41.0233 -73.0369 41° Northeast 514 592 17,700 -1,800 Descending Boston Center
Mon 10:41:56 AM 41.1261 -72.9169 41° Northeast 504 580 15,300 -2,250 Descending Boston Center
Mon 10:42:56 AM 41.1994 -72.8292 42° Northeast 482 555 13,200 -2,582 Descending Boston Center
Mon 10:43:15 AM 41.2475 -72.7714 42° Northeast 452 520 11,900 -2,791 Descending Boston Center
Mon 10:43:39 AM 41.2872 -72.7383 32° Northeast 428 493 11,200 -1,171 Descending Boston Center
Mon 10:43:56 AM 41.3206 -72.7331 North 401 461 11,100 -234 Descending Boston Center
Mon 10:44:56 AM 41.4100 -72.7778 339° North 364 419 10,900 -550 Descending Boston Center
Mon 10:45:56 AM 41.5206 -72.7533 North 359 413 10,000 -1,189 Descending Boston Center
Mon 10:46:47 AM 41.5956 -72.7150 21° North 317 365 8,700 -1,755 Descending Boston Center
Mon 10:47:42 AM 41.6644 -72.6819 20° North 301 346 6,900 -1,826 Descending Boston Center
Mon 10:48:42 AM 41.7353 -72.6486 19° North 272 313 5,200 -1,438 Descending Boston Center
Mon 10:49:43 AM 41.8042 -72.6156 20° North 266 306 4,000 -541 Descending Boston Center
Mon 10:50:44 AM 41.8708 -72.5878 17° North 234 269 4,100 -198 Climbing Boston Center
Mon 10:51:44 AM 41.9211 -72.5461 32° Northeast 218 251 3,600 -545 Descending Boston Center
Mon 10:52:45 AM 41.9731 -72.5156 24° Northeast 202 232 3,000 -738 Descending Boston Center
Mon 10:53:46 AM 42.0106 -72.5631 317° Northwest 192 221 2,100 -687 Descending Boston Center
Mon 10:54:56 AM 41.9939 -72.6161 247° West 142 163 1,500 -645 Descending Boston Center
Mon 10:55:47 AM 41.9689 -72.6467 222° Southwest 131 151 800 -824 Descending Boston Center
Mon 10:59:00 AM 41.9333 -72.6833 45° Northeast  Level FlightAware Approximate
Mon 11:06:00 AM 41.9392 -72.6834 45° Northeast  Level Estimated
Mon 11:07:00 AM 41.9333 -72.6833 45° Northeast  Level FlightAware Approximate
Mon 11:08:00 AM 41.9392 -72.6834 45° Northeast  Level Estimated
Mon 11:09:00 AM 41.9333 -72.6833 45° Northeast  Level FlightAware Approximate

Login

Don't have an account? Register now (free) for customized features, flight alerts, and more!